createdAt,value
2023-04-06T00:01:23.988Z,26.95
2023-04-06T00:06:27.825Z,23.17
2023-04-06T00:11:32.031Z,23.42
2023-04-06T00:16:34.925Z,21.85
2023-04-06T00:21:37.816Z,21.42
2023-04-06T00:26:42.114Z,23.38
2023-04-06T00:31:45.019Z,23.42
2023-04-06T00:36:47.840Z,23.67
2023-04-06T00:41:54.312Z,24.20
2023-04-06T00:46:57.096Z,23.38
2023-04-06T00:51:59.846Z,23.50
2023-04-06T00:57:04.074Z,23.40
2023-04-06T01:02:07.463Z,22.87
2023-04-06T01:07:16.957Z,23.45
2023-04-06T01:12:34.442Z,23.08
2023-04-06T01:17:41.530Z,22.25
2023-04-06T01:22:50.833Z,22.23
2023-04-06T01:27:54.904Z,19.48
2023-04-06T01:33:01.187Z,19.23
2023-04-06T01:38:16.347Z,19.53
2023-04-06T01:43:20.803Z,20.02
2023-04-06T01:48:37.447Z,19.85
2023-04-06T01:53:51.928Z,19.73
2023-04-06T01:58:57.705Z,20.30
2023-04-06T02:04:06.059Z,20.30
2023-04-06T02:09:10.769Z,20.47
2023-04-06T02:14:37.394Z,19.42
2023-04-06T02:19:40.924Z,20.45
2023-04-06T02:24:45.208Z,20.27
2023-04-06T02:29:49.060Z,19.27
2023-04-06T02:34:56.512Z,19.75
2023-04-06T02:40:01.964Z,17.50
2023-04-06T02:45:08.284Z,19.73
2023-04-06T02:50:19.627Z,20.35
2023-04-06T02:55:35.958Z,19.63
2023-04-06T03:00:39.560Z,18.00
2023-04-06T03:05:42.596Z,18.67
2023-04-06T03:10:47.871Z,19.05
2023-04-06T03:15:52.769Z,18.40
2023-04-06T03:20:57.675Z,18.53
2023-04-06T03:26:23.194Z,17.93
2023-04-06T03:31:28.333Z,20.10
2023-04-06T03:37:09.893Z,20.97
2023-04-06T03:42:20.360Z,20.63
2023-04-06T03:47:32.695Z,20.77
2023-04-06T03:52:40.139Z,21.43
2023-04-06T03:57:44.377Z,21.52
2023-04-06T04:02:47.383Z,21.60
2023-04-06T04:07:50.413Z,22.48
2023-04-06T04:12:54.759Z,23.58
2023-04-06T04:17:58.252Z,25.00
2023-04-06T04:23:01.073Z,21.40
2023-04-06T04:28:08.881Z,25.40
2023-04-06T04:33:13.634Z,26.05
2023-04-06T04:38:18.166Z,28.48
2023-04-06T04:43:28.379Z,28.00
2023-04-06T04:48:32.675Z,30.60
2023-04-06T04:53:38.706Z,31.17
2023-04-06T04:58:54.095Z,31.83
2023-04-06T05:03:57.534Z,31.23
2023-04-06T05:09:00.379Z,32.67
2023-04-06T05:14:08.242Z,31.33
2023-04-06T05:19:12.579Z,32.58
2023-04-06T05:24:19.919Z,29.52
2023-04-06T05:29:25.966Z,30.95
2023-04-06T05:34:28.971Z,31.30
2023-04-06T05:39:32.947Z,33.15
2023-04-06T05:44:39.070Z,35.45
2023-04-06T05:49:49.228Z,34.08
2023-04-06T05:55:00.932Z,34.15
2023-04-06T06:00:07.817Z,34.13
2023-04-06T06:05:23.107Z,35.03
2023-04-06T06:10:27.198Z,34.05
2023-04-06T06:15:31.695Z,35.10
2023-04-06T06:20:34.897Z,38.58
2023-04-06T06:25:41.418Z,38.10
2023-04-06T06:30:45.800Z,42.35
2023-04-06T06:35:54.048Z,38.15
2023-04-06T06:40:57.188Z,39.40
2023-04-06T06:46:05.044Z,37.85
2023-04-06T06:51:08.055Z,38.30
2023-04-06T06:56:11.469Z,42.38
2023-04-06T07:01:16.073Z,43.28
2023-04-06T07:06:19.523Z,44.17
2023-04-06T07:11:22.753Z,44.30
2023-04-06T07:16:27.149Z,47.22
2023-04-06T07:21:31.731Z,50.65
2023-04-06T07:26:34.730Z,50.27
2023-04-06T07:31:38.992Z,53.33
2023-04-06T07:36:42.116Z,50.78
2023-04-06T07:41:45.334Z,56.67
2023-04-06T07:46:49.673Z,51.97
2023-04-06T07:51:53.342Z,50.35
2023-04-06T07:56:56.796Z,51.27
2023-04-06T08:02:01.487Z,51.17
2023-04-06T08:07:04.675Z,57.53
2023-04-06T08:12:07.888Z,53.58
2023-04-06T08:17:12.233Z,54.85
2023-04-06T08:22:15.223Z,56.87
2023-04-06T08:27:18.140Z,56.42
2023-04-06T08:32:22.447Z,59.92
2023-04-06T08:37:25.468Z,53.58
2023-04-06T08:42:28.850Z,56.28
2023-04-06T08:47:33.250Z,52.90
2023-04-06T08:52:36.294Z,54.22
2023-04-06T08:57:39.428Z,51.77
2023-04-06T09:02:47.691Z,52.65
2023-04-06T09:07:50.639Z,49.60
2023-04-06T09:12:58.852Z,51.92
2023-04-06T09:18:03.482Z,51.78
2023-04-06T09:23:06.509Z,55.55
2023-04-06T09:28:09.433Z,49.25
2023-04-06T09:33:13.753Z,50.90
2023-04-06T09:38:16.823Z,47.50
2023-04-06T09:43:26.298Z,45.55
2023-04-06T09:48:33.176Z,44.50
2023-04-06T09:53:37.518Z,43.63
2023-04-06T09:58:43.421Z,45.47
2023-04-06T10:03:53.924Z,49.47
2023-04-06T10:08:58.865Z,52.07
2023-04-06T10:14:01.846Z,58.73
2023-04-06T10:19:09.232Z,52.75
2023-04-06T10:24:13.218Z,48.10
2023-04-06T10:29:16.085Z,52.85
2023-04-06T10:34:20.414Z,53.03
2023-04-06T10:39:28.069Z,45.92
2023-04-06T10:44:31.039Z,52.95
2023-04-06T10:49:36.608Z,51.17
2023-04-06T10:54:43.798Z,41.50
2023-04-06T10:59:46.690Z,38.13
2023-04-06T11:04:58.432Z,45.17
2023-04-06T11:10:14.585Z,39.70
2023-04-06T11:15:19.700Z,40.00
2023-04-06T11:20:23.990Z,32.30
2023-04-06T11:25:28.637Z,31.17
2023-04-06T11:30:31.617Z,31.42
2023-04-06T11:35:36.800Z,28.75
2023-04-06T11:40:39.737Z,25.15
2023-04-06T11:45:44.085Z,25.98
2023-04-06T11:50:50.128Z,27.53
2023-04-06T11:55:53.129Z,21.15
2023-04-06T12:00:56.067Z,20.98
2023-04-06T12:06:00.895Z,17.85
2023-04-06T12:11:03.806Z,15.65
2023-04-06T12:16:07.622Z,17.33
2023-04-06T12:21:11.987Z,15.00
2023-04-06T12:26:15.028Z,14.27
2023-04-06T12:31:18.273Z,13.80
2023-04-06T12:36:23.227Z,14.25
2023-04-06T12:41:26.196Z,14.02
2023-04-06T12:46:30.961Z,14.57
2023-04-06T12:51:41.479Z,15.40
2023-04-06T12:56:44.695Z,16.38
2023-04-06T13:01:47.740Z,14.37
2023-04-06T13:06:52.014Z,15.23
2023-04-06T13:11:54.981Z,13.87
2023-04-06T13:16:58.454Z,15.25
2023-04-06T13:22:02.751Z,14.97
2023-04-06T13:27:05.817Z,14.82
2023-04-06T13:32:10.995Z,14.85
2023-04-06T13:37:15.837Z,14.88
2023-04-06T13:42:18.752Z,16.25
2023-04-06T13:47:22.240Z,16.95
2023-04-06T13:52:26.597Z,16.33
2023-04-06T13:57:30.716Z,17.33
2023-04-06T14:02:33.703Z,17.00
2023-04-06T14:07:38.041Z,18.67
2023-04-06T14:12:40.944Z,19.05
2023-04-06T14:17:43.833Z,20.25
2023-04-06T14:22:50.356Z,19.42
2023-04-06T14:27:53.353Z,19.35
2023-04-06T14:32:58.946Z,19.13
2023-04-06T14:38:03.172Z,21.00
2023-04-06T14:43:06.057Z,21.67
2023-04-06T14:48:12.884Z,20.88
2023-04-06T14:53:17.363Z,21.42
2023-04-06T14:58:20.413Z,21.08
2023-04-06T15:03:47.004Z,17.80
2023-04-06T15:08:52.018Z,17.08
2023-04-06T15:13:54.904Z,16.73
2023-04-06T15:18:57.834Z,17.23
2023-04-06T15:24:02.232Z,17.97
2023-04-06T15:29:05.386Z,18.73
2023-04-06T15:39:33.541Z,17.90
2023-04-06T15:44:36.555Z,18.00
2023-04-06T15:49:39.455Z,19.73
2023-04-06T15:54:43.671Z,18.35
2023-04-06T15:59:46.521Z,18.60
2023-04-06T16:04:49.431Z,19.43
2023-04-06T16:09:53.667Z,19.67
2023-04-06T16:14:59.233Z,19.52
2023-04-06T16:20:02.135Z,18.60
2023-04-06T16:25:07.143Z,18.50
2023-04-06T16:30:11.082Z,19.30
2023-04-06T16:35:13.929Z,17.67
2023-04-06T16:40:18.321Z,18.15
2023-04-06T16:45:21.534Z,18.20
2023-04-06T16:50:24.394Z,19.30
2023-04-06T16:55:28.605Z,19.02
2023-04-06T17:00:31.514Z,19.90
2023-04-06T17:05:34.820Z,19.75
2023-04-06T17:15:49.850Z,20.30
2023-04-06T17:20:52.825Z,22.02
2023-04-06T17:25:57.917Z,20.67
2023-04-06T17:31:01.142Z,22.35
2023-04-06T17:36:04.397Z,22.83
2023-04-06T17:41:08.623Z,22.27
2023-04-06T17:46:11.645Z,24.83
2023-04-06T17:51:15.369Z,23.43
2023-04-06T17:56:19.515Z,25.33
2023-04-06T18:01:22.415Z,26.27
2023-04-06T18:06:26.250Z,27.00
2023-04-06T18:11:32.580Z,26.77
2023-04-06T18:16:35.622Z,28.88
2023-04-06T18:21:38.463Z,30.40
2023-04-06T18:26:42.727Z,31.20
2023-04-06T18:31:50.514Z,34.10
2023-04-06T18:36:53.426Z,35.85
2023-04-06T18:42:00.142Z,36.08
2023-04-06T18:47:02.963Z,40.00
2023-04-06T18:52:06.402Z,41.83
2023-04-06T18:57:11.253Z,47.90
2023-04-06T19:02:14.430Z,50.38
2023-04-06T19:07:17.855Z,49.90
2023-04-06T19:12:22.116Z,51.03
2023-04-06T19:17:24.932Z,50.30
2023-04-06T19:22:28.005Z,52.00
2023-04-06T19:27:32.481Z,57.88
2023-04-06T19:32:35.630Z,62.10
2023-04-06T19:37:38.928Z,60.85
2023-04-06T19:42:43.158Z,66.18
2023-04-06T19:47:46.040Z,62.20
2023-04-06T19:52:49.772Z,63.87
2023-04-06T19:57:54.352Z,51.17
2023-04-06T20:02:57.326Z,42.78
2023-04-06T20:08:00.737Z,34.85
2023-04-06T20:13:05.032Z,32.72
2023-04-06T20:18:09.093Z,28.73
2023-04-06T20:23:12.776Z,26.20
2023-04-06T20:28:17.383Z,26.70
2023-04-06T20:33:20.351Z,26.88
2023-04-06T20:38:32.377Z,24.23
2023-04-06T20:43:37.631Z,23.45
2023-04-06T20:48:40.610Z,21.70
2023-04-06T20:53:43.395Z,23.30
2023-04-06T20:58:47.676Z,23.20
2023-04-06T21:03:51.065Z,23.33
2023-04-06T21:08:53.952Z,23.63
2023-04-06T21:13:58.178Z,24.05
2023-04-06T21:19:01.031Z,22.90
2023-04-06T21:24:04.300Z,21.27
2023-04-06T21:29:08.593Z,20.95
2023-04-06T21:34:11.849Z,21.20
2023-04-06T21:39:14.703Z,20.80
2023-04-06T21:44:19.035Z,22.60
2023-04-06T21:49:21.862Z,21.95
2023-04-06T21:54:24.636Z,21.00
2023-04-06T21:59:28.852Z,20.63
2023-04-06T22:04:32.302Z,17.13
2023-04-06T22:09:35.338Z,14.32
2023-04-06T22:14:39.517Z,11.70
2023-04-06T22:19:42.470Z,12.60
2023-04-06T22:24:45.409Z,13.15
2023-04-06T22:29:49.588Z,12.80
2023-04-06T22:34:52.487Z,13.70
2023-04-06T22:39:56.031Z,12.10
2023-04-06T22:45:00.185Z,11.23
2023-04-06T22:50:03.031Z,10.93
2023-04-06T22:55:06.411Z,11.47
2023-04-06T23:00:11.902Z,10.88
2023-04-06T23:05:14.827Z,11.18
2023-04-06T23:10:17.875Z,10.57
2023-04-06T23:15:22.036Z,10.57
2023-04-06T23:20:24.962Z,11.70
2023-04-06T23:25:27.806Z,15.40
2023-04-06T23:30:31.927Z,14.55
2023-04-06T23:35:34.740Z,16.10
2023-04-06T23:40:38.966Z,17.07
2023-04-06T23:45:43.406Z,16.38
2023-04-06T23:50:46.455Z,16.40
2023-04-06T23:55:49.313Z,14.75
